createdAt,value
2017-07-07T00:07:36.713Z,1007.4
2017-07-07T00:17:51.860Z,1007.4
2017-07-07T00:28:07.427Z,1006.9
2017-07-07T00:38:22.403Z,1006.9
2017-07-07T00:48:37.768Z,1006.7
2017-07-07T00:58:51.775Z,1006.6
2017-07-07T01:09:05.499Z,1006.6
2017-07-07T01:19:20.944Z,1006.7
2017-07-07T01:29:34.795Z,1006.8
2017-07-07T01:39:48.811Z,1007
2017-07-07T01:50:03.344Z,1007.4
2017-07-07T02:00:18.824Z,1007.1
2017-07-07T02:10:32.616Z,1006.7
2017-07-07T02:20:47.692Z,1006.3
2017-07-07T02:31:02.784Z,1006.9
2017-07-07T02:41:17.419Z,1006.8
2017-07-07T02:51:31.823Z,1006.7
2017-07-07T03:01:46.579Z,1007.1
2017-07-07T03:12:01.370Z,1007.1
2017-07-07T03:22:15.174Z,1007.1
2017-07-07T03:32:29.179Z,1007
2017-07-07T03:42:44.802Z,1006.5
2017-07-07T03:52:58.806Z,1005.5
2017-07-07T04:03:12.562Z,1005.6
2017-07-07T04:13:27.187Z,1006
2017-07-07T04:23:41.812Z,1006
2017-07-07T04:33:57.513Z,1006.1
2017-07-07T04:44:11.928Z,1006.1
2017-07-07T04:54:25.780Z,1006.2
2017-07-07T05:04:40.520Z,1006.3
2017-07-07T05:14:55.661Z,1006.6
2017-07-07T05:25:10.874Z,1006.7
2017-07-07T05:35:25.248Z,1006.7
2017-07-07T05:45:40.094Z,1006.7
2017-07-07T05:55:54.781Z,1006.7
2017-07-07T06:06:08.610Z,1006.9
2017-07-07T06:16:24.626Z,1006.9
2017-07-07T06:26:39.212Z,1006.8
2017-07-07T06:36:53.600Z,1006.7
2017-07-07T06:47:09.015Z,1006.9
2017-07-07T06:57:24.268Z,1006.8
2017-07-07T07:07:38.503Z,1006.7
2017-07-07T07:17:53.183Z,1006.9
2017-07-07T07:28:08.534Z,1006.9
2017-07-07T07:38:24.328Z,1007.2
2017-07-07T07:48:39.750Z,1007.3
2017-07-07T07:58:54.078Z,1007.3
2017-07-07T08:09:09.974Z,1007.3
2017-07-07T08:19:24.337Z,1007.3
2017-07-07T08:29:40.294Z,1007.3
2017-07-07T08:39:56.088Z,1007.2
2017-07-07T08:50:10.394Z,1007.3
2017-07-07T09:00:26.124Z,1007.2
2017-07-07T09:10:41.353Z,1007.3
2017-07-07T09:20:56.382Z,1007.7
2017-07-07T09:31:11.283Z,1007.6
2017-07-07T09:41:26.282Z,1007.3
2017-07-07T09:51:41.495Z,1007.2
2017-07-07T10:01:56.779Z,1007.5
2017-07-07T10:12:11.309Z,1007.3
2017-07-07T10:22:26.885Z,1007.3
2017-07-07T10:32:41.832Z,1007.8
2017-07-07T10:42:56.076Z,1007.4
2017-07-07T10:53:10.133Z,1007.4
2017-07-07T11:03:25.685Z,1007.7
2017-07-07T11:13:40.578Z,1007.6
2017-07-07T11:23:55.297Z,1007.7
2017-07-07T11:34:09.645Z,1008
2017-07-07T11:44:23.926Z,1007.9
2017-07-07T11:54:39.078Z,1007.5
2017-07-07T12:04:53.300Z,1008.1
2017-07-07T12:15:08.679Z,1007.5
2017-07-07T12:25:22.897Z,1007.5
2017-07-07T12:35:37.815Z,1008
2017-07-07T12:45:51.839Z,1007.8
2017-07-07T12:56:07.143Z,1008.2
2017-07-07T13:06:22.548Z,1007.9
2017-07-07T13:16:37.900Z,1007.6
2017-07-07T13:26:53.560Z,1008.4
2017-07-07T13:37:08.521Z,1007.5
2017-07-07T13:47:24.190Z,1007.3
2017-07-07T13:57:38.655Z,1008.3
2017-07-07T14:07:54.479Z,1007.7
2017-07-07T14:18:09.846Z,1007.4
2017-07-07T14:28:24.562Z,1007.3
2017-07-07T14:38:39.409Z,1007.1
2017-07-07T14:48:55.163Z,1007.2
2017-07-07T14:59:09.842Z,1007.2
2017-07-07T15:09:25.265Z,1007.1
2017-07-07T15:19:41.001Z,1007.3
2017-07-07T15:29:55.303Z,1007.6
2017-07-07T15:40:10.169Z,1007.5
2017-07-07T15:50:23.606Z,1007.2
2017-07-07T16:00:38.813Z,1007.4
2017-07-07T16:10:53.914Z,1007.6
2017-07-07T16:21:08.160Z,1007.4
2017-07-07T16:31:23.154Z,1007.3
2017-07-07T16:41:37.171Z,1007.2
2017-07-07T16:51:51.416Z,1007.2
2017-07-07T17:02:05.422Z,1007.2
2017-07-07T17:12:21.148Z,1007.4
2017-07-07T17:22:36.035Z,1007.5
2017-07-07T17:32:49.987Z,1007.5
2017-07-07T17:43:05.023Z,1007.5
2017-07-07T17:53:19.193Z,1007.6
2017-07-07T18:03:34.627Z,1007.5
2017-07-07T18:13:48.559Z,1007.6
2017-07-07T18:24:04.234Z,1007.6
2017-07-07T18:34:18.692Z,1007.6
2017-07-07T18:44:33.032Z,1007.6
2017-07-07T18:54:47.499Z,1007.6
2017-07-07T19:05:02.671Z,1007.7
2017-07-07T19:15:17.769Z,1007.8
2017-07-07T19:25:31.970Z,1008
2017-07-07T19:35:46.877Z,1008.2
2017-07-07T19:46:01.745Z,1008.3
2017-07-07T19:56:17.109Z,1008.5
2017-07-07T20:06:31.390Z,1008.7
2017-07-07T20:16:45.953Z,1008.8
2017-07-07T20:27:01.696Z,1008.9
2017-07-07T20:37:17.176Z,1008.8
2017-07-07T20:47:31.115Z,1009
2017-07-07T20:57:45.601Z,1009
2017-07-07T21:08:01.036Z,1009.1
2017-07-07T21:18:14.864Z,1009.3
2017-07-07T21:28:28.980Z,1009.3
2017-07-07T21:38:44.537Z,1009.2
2017-07-07T21:48:58.728Z,1009.2
2017-07-07T21:59:12.729Z,1009
2017-07-07T22:09:28.168Z,1009.2
2017-07-07T22:19:42.759Z,1009.3
2017-07-07T22:29:56.943Z,1009.3
2017-07-07T22:40:11.141Z,1009.4
2017-07-07T22:50:25.701Z,1009.3
2017-07-07T23:00:40.520Z,1009.3
2017-07-07T23:10:55.963Z,1009.3
2017-07-07T23:21:11.745Z,1009.3
2017-07-07T23:31:26.266Z,1009.3
2017-07-07T23:41:40.339Z,1009.3
2017-07-07T23:51:55.146Z,1009.2
